Time;durP1;ratioP1;P1;durP2;ratioP2;P2;SDS_P1;SDS_P2;PMS_P1;PMS_P2;Temp;Humidity;BMP_temperature;BMP_pressure;BME280_temperature;BME280_humidity;BME280_pressure;Samples;Min_cycle;Max_cycle;Signal;HPM_P1;HPM_P2
2022/12/30 00:01:18;;;;;;;25.98;4.97;;;;;;;7.34;100.00;100276.16;4918099;29;20070;-73
2022/12/30 00:03:43;;;;;;;32.35;6.13;;;;;;;7.20;100.00;100284.75;4918217;29;20118;-73
2022/12/30 00:06:16;;;;;;;24.63;4.65;;;;;;;7.28;100.00;100284.84;4917904;29;20187;-73
2022/12/30 00:08:50;;;;;;;25.05;4.35;;;;;;;7.24;100.00;100310.38;4935620;29;20086;-73
2022/12/30 00:11:22;;;;;;;29.48;5.25;;;;;;;7.08;100.00;100307.50;4918367;29;20027;-73
2022/12/30 00:34:07;;;;;;;25.38;4.50;;;;;;;7.11;100.00;100334.13;4917064;29;20032;-74
2022/12/30 00:36:34;;;;;;;24.77;5.38;;;;;;;7.09;100.00;100336.09;4914903;29;20480;-73
2022/12/30 00:38:59;;;;;;;21.17;4.13;;;;;;;7.03;100.00;100363.59;4907377;29;20103;-72
2022/12/30 00:44:08;;;;;;;26.90;5.63;;;;;;;6.96;100.00;100340.97;4935479;29;20035;-75
2022/12/30 00:46:37;;;;;;;25.58;4.45;;;;;;;6.93;100.00;100357.44;4912021;29;20499;-72
2022/12/30 00:57:14;;;;;;;32.67;5.57;;;;;;;6.88;100.00;100365.09;4927703;29;20055;-73
2022/12/30 00:59:39;;;;;;;24.63;5.18;;;;;;;6.65;100.00;100360.06;4910947;29;20062;-72
2022/12/30 01:02:05;;;;;;;26.10;5.10;;;;;;;6.49;100.00;100373.25;4904927;29;20023;-73
2022/12/30 01:04:30;;;;;;;27.35;7.00;;;;;;;6.22;100.00;100377.53;4913356;29;20024;-73
2022/12/30 01:06:56;;;;;;;20.90;5.28;;;;;;;6.08;100.00;100412.91;4926447;29;20028;-73
2022/12/30 01:09:21;;;;;;;18.42;5.20;;;;;;;6.19;100.00;100402.03;4909523;29;20086;-72
2022/12/30 01:12:07;;;;;;;28.52;5.82;;;;;;;6.29;100.00;100411.91;4916791;29;20110;-73
2022/12/30 01:14:41;;;;;;;22.80;5.78;;;;;;;6.28;100.00;100377.97;4914674;29;20028;-72
2022/12/30 01:17:09;;;;;;;21.95;5.78;;;;;;;6.32;100.00;100373.97;4927757;29;20424;-73
2022/12/30 01:19:35;;;;;;;39.55;7.10;;;;;;;6.46;100.00;100381.63;4947056;28;20028;-73
2022/12/30 01:22:00;;;;;;;30.52;6.28;;;;;;;6.51;100.00;100384.72;4919506;29;20023;-73
2022/12/30 01:24:26;;;;;;;24.92;5.65;;;;;;;6.47;100.00;100383.31;4901172;29;20024;-72
2022/12/30 01:26:51;;;;;;;25.17;5.60;;;;;;;6.61;100.00;100396.31;4949847;28;20034;-72
2022/12/30 01:29:43;;;;;;;30.20;6.05;;;;;;;6.61;100.00;100401.69;4916374;29;20027;-73
2022/12/30 01:32:14;;;;;;;29.58;6.72;;;;;;;6.61;100.00;100401.69;4903066;29;20039;-72
2022/12/30 01:34:40;;;;;;;40.95;6.82;;;;;;;6.58;100.00;100396.59;4903406;29;20083;-72
2022/12/30 01:37:06;;;;;;;27.13;5.82;;;;;;;6.59;100.00;100398.31;4937810;29;20459;-72
2022/12/30 01:39:32;;;;;;;31.92;6.10;;;;;;;6.65;100.00;100400.44;4933816;29;20036;-72
2022/12/30 01:41:58;;;;;;;30.92;5.75;;;;;;;6.69;100.00;100412.56;4930518;29;20054;-73
2022/12/30 01:44:48;;;;;;;33.47;6.32;;;;;;;6.66;100.00;100426.31;4919860;29;20082;-72
2022/12/30 01:47:42;;;;;;;37.08;6.22;;;;;;;6.73;100.00;100427.44;4931220;29;20051;-73
2022/12/30 01:50:10;;;;;;;37.10;5.90;;;;;;;6.77;100.00;100431.53;4933229;29;20023;-72
2022/12/30 01:52:39;;;;;;;35.60;5.75;;;;;;;6.72;100.00;100425.75;4925550;29;20077;-73
2022/12/30 01:55:09;;;;;;;30.83;6.13;;;;;;;6.64;100.00;100428.28;4951404;28;20068;-73
2022/12/30 01:57:38;;;;;;;44.15;5.53;;;;;;;6.68;100.00;100424.34;4910449;29;20035;-73
2022/12/30 02:00:04;;;;;;;39.97;6.35;;;;;;;6.65;100.00;100411.19;4901142;29;20503;-73
2022/12/30 02:02:31;;;;;;;54.10;7.32;;;;;;;6.61;100.00;100433.97;4909986;29;20039;-73
2022/12/30 02:04:56;;;;;;;24.05;5.60;;;;;;;6.64;100.00;100433.66;4912125;29;20131;-73
2022/12/30 02:07:29;;;;;;;37.55;6.47;;;;;;;6.66;100.00;100439.78;4927707;29;20040;-73
2022/12/30 02:09:56;;;;;;;25.42;5.22;;;;;;;6.65;100.00;100435.41;4910490;29;20024;-73
2022/12/30 02:12:22;;;;;;;31.52;6.50;;;;;;;6.58;100.00;100434.25;4909572;29;20122;-73
2022/12/30 02:14:50;;;;;;;37.35;6.10;;;;;;;6.66;100.00;100447.00;4901777;29;20032;-73
2022/12/30 02:17:29;;;;;;;38.13;6.28;;;;;;;6.71;100.00;100440.16;4909000;29;20043;-73
2022/12/30 02:20:08;;;;;;;35.65;5.85;;;;;;;6.61;100.00;100449.25;4898011;29;20441;-73
2022/12/30 02:23:17;;;;;;;31.90;5.00;;;;;;;6.65;100.00;100440.78;4930332;29;20067;-73
2022/12/30 02:26:00;;;;;;;34.05;6.05;;;;;;;6.53;100.00;100441.91;4901210;29;20028;-73
2022/12/30 02:28:56;;;;;;;33.67;6.00;;;;;;;6.64;100.00;100439.03;4922340;29;20032;-73
2022/12/30 02:31:41;;;;;;;37.60;6.57;;;;;;;6.47;100.00;100442.47;4928464;29;20039;-73
2022/12/30 02:34:24;;;;;;;34.85;6.45;;;;;;;6.55;100.00;100439.91;4902863;29;20024;-73
2022/12/30 02:37:22;;;;;;;29.00;5.47;;;;;;;6.54;100.00;100454.38;4900590;29;20024;-72
2022/12/30 02:39:56;;;;;;;46.53;7.22;;;;;;;6.49;100.00;100452.09;4911154;29;20032;-72
2022/12/30 02:45:36;;;;;;;47.85;6.93;;;;;;;6.51;100.00;100460.00;4929345;29;20028;-72
2022/12/30 02:48:08;;;;;;;40.17;6.78;;;;;;;6.39;100.00;100461.13;4910550;29;20035;-72
2022/12/30 02:53:27;;;;;;;40.38;6.88;;;;;;;6.57;100.00;100459.44;4932300;29;20032;-73
2022/12/30 02:55:52;;;;;;;31.20;6.63;;;;;;;6.63;100.00;100464.25;4947433;29;20028;-73
2022/12/30 02:58:18;;;;;;;47.20;6.65;;;;;;;6.53;100.00;100468.81;4926132;29;20027;-73
2022/12/30 03:03:59;;;;;;;46.80;6.95;;;;;;;6.65;100.00;100473.06;4928160;29;20031;-72
2022/12/30 03:06:52;;;;;;;44.80;6.65;;;;;;;6.70;100.00;100470.75;4933293;29;20031;-73
2022/12/30 03:11:12;;;;;;;38.50;6.25;;;;;;;6.56;100.00;100490.03;4912125;29;20035;-75
2022/12/30 03:12:39;;;;;;;36.17;6.82;;;;;;;6.66;100.00;100485.50;4935881;29;20035;-73
2022/12/30 03:15:14;;;;;;;29.40;6.80;;;;;;;6.63;100.00;100480.41;4915348;29;20030;-73
2022/12/30 03:17:41;;;;;;;37.35;6.13;;;;;;;6.72;100.00;100474.19;4934533;29;20027;-73
2022/12/30 03:20:12;;;;;;;33.67;5.93;;;;;;;6.69;100.00;100500.50;4919135;29;20016;-72
2022/12/30 03:28:12;;;;;;;45.92;6.43;;;;;;;6.85;100.00;100508.00;4935562;29;20067;-74
2022/12/30 03:30:50;;;;;;;40.50;6.57;;;;;;;6.95;100.00;100514.22;4946185;28;20024;-74
2022/12/30 03:33:16;;;;;;;41.60;5.95;;;;;;;6.88;100.00;100505.03;4918614;29;20031;-74
2022/12/30 03:35:49;;;;;;;49.78;7.82;;;;;;;6.80;100.00;100509.28;4918585;29;20020;-74
2022/12/30 03:38:18;;;;;;;28.30;6.15;;;;;;;6.88;100.00;100505.03;4935313;29;20478;-72
2022/12/30 03:40:47;;;;;;;48.45;6.88;;;;;;;6.88;100.00;100511.25;4918168;29;20039;-72
2022/12/30 03:43:14;;;;;;;28.80;5.78;;;;;;;6.94;100.00;100520.59;4918243;29;20116;-74
2022/12/30 03:45:39;;;;;;;36.05;5.88;;;;;;;6.93;100.00;100535.06;4917585;29;20027;-74
2022/12/30 03:48:05;;;;;;;43.92;5.60;;;;;;;6.82;100.00;100532.50;4934228;29;20035;-75
2022/12/30 03:50:30;;;;;;;36.53;6.55;;;;;;;6.90;100.00;100532.63;4932950;29;20027;-75
2022/12/30 03:52:56;;;;;;;35.75;5.55;;;;;;;6.99;100.00;100542.56;4925905;29;20022;-74
2022/12/30 03:55:21;;;;;;;41.85;5.28;;;;;;;7.07;100.00;100537.28;4920589;29;20026;-74
2022/12/30 03:57:47;;;;;;;28.95;5.57;;;;;;;7.06;100.00;100549.06;4919242;29;20035;-74
2022/12/30 04:00:12;;;;;;;39.67;6.60;;;;;;;7.05;100.00;100552.75;4917956;29;20135;-74
2022/12/30 04:02:38;;;;;;;32.08;6.03;;;;;;;7.13;100.00;100544.78;4949643;28;20082;-75
2022/12/30 04:05:05;;;;;;;36.47;6.35;;;;;;;7.12;100.00;100553.88;4917527;29;20024;-72
2022/12/30 04:07:31;;;;;;;39.67;7.32;;;;;;;6.88;100.00;100554.31;4918279;29;20038;-72
2022/12/30 04:09:57;;;;;;;38.15;6.18;;;;;;;7.13;100.00;100552.88;4917998;29;20024;-72
2022/12/30 04:12:22;;;;;;;41.90;5.63;;;;;;;7.20;100.00;100554.00;4934947;29;20020;-73
2022/12/30 04:14:48;;;;;;;30.75;5.75;;;;;;;7.29;100.00;100561.19;4935053;29;20083;-72
2022/12/30 04:17:13;;;;;;;34.97;5.93;;;;;;;7.16;100.00;100579.50;4914459;29;20035;-73
2022/12/30 04:19:39;;;;;;;50.08;8.55;;;;;;;6.96;100.00;100561.66;4916181;29;20040;-75
2022/12/30 04:22:04;;;;;;;38.85;7.32;;;;;;;7.01;100.00;100570.16;4918504;29;20031;-75
2022/12/30 04:24:30;;;;;;;32.13;6.10;;;;;;;7.09;100.00;100567.59;4921834;29;20024;-74
2022/12/30 04:26:55;;;;;;;37.50;5.82;;;;;;;7.18;100.00;100582.06;4915634;29;20031;-73
2022/12/30 04:29:20;;;;;;;34.50;5.78;;;;;;;7.21;100.00;100571.84;4914585;29;20024;-73
2022/12/30 04:31:46;;;;;;;41.50;6.97;;;;;;;6.99;100.00;100588.31;4913948;29;20080;-73
2022/12/30 04:34:14;;;;;;;29.80;5.20;;;;;;;7.08;100.00;100587.44;4913783;29;20031;-73
2022/12/30 04:36:40;;;;;;;39.63;5.78;;;;;;;7.14;100.00;100586.88;4914351;29;20024;-73
2022/12/30 04:39:06;;;;;;;26.60;5.60;;;;;;;7.20;100.00;100586.31;4915472;29;20026;-73
2022/12/30 04:41:31;;;;;;;33.80;5.50;;;;;;;7.26;100.00;100585.72;4916559;29;20114;-73
2022/12/30 04:43:56;;;;;;;44.55;6.82;;;;;;;7.30;100.00;100587.16;4917123;29;20091;-73
2022/12/30 04:46:22;;;;;;;44.05;6.07;;;;;;;7.12;100.00;100594.25;4915629;29;20032;-75
2022/12/30 04:48:47;;;;;;;41.08;5.63;;;;;;;7.12;100.00;100588.88;4915067;29;20028;-73
2022/12/30 04:51:13;;;;;;;32.63;5.40;;;;;;;7.18;100.00;100609.00;4915132;29;20016;-73
2022/12/30 04:53:38;;;;;;;31.92;5.75;;;;;;;7.15;100.00;100602.03;4930246;29;20024;-73
2022/12/30 04:56:04;;;;;;;35.45;5.53;;;;;;;7.35;100.00;100611.78;4918666;29;20024;-73
2022/12/30 04:58:29;;;;;;;41.28;6.97;;;;;;;7.24;100.00;100606.56;4918663;29;20114;-73
2022/12/30 05:00:55;;;;;;;37.00;5.50;;;;;;;7.26;100.00;100612.66;4950405;29;20051;-73
2022/12/30 05:03:20;;;;;;;44.47;6.38;;;;;;;7.18;100.00;100615.22;4918091;29;20056;-73
2022/12/30 05:05:46;;;;;;;36.30;5.55;;;;;;;7.16;100.00;100611.81;4918241;29;20031;-73
2022/12/30 05:08:11;;;;;;;37.90;6.55;;;;;;;7.22;100.00;100622.00;4918089;29;20467;-74
2022/12/30 05:10:38;;;;;;;38.20;6.43;;;;;;;7.19;100.00;100616.91;4920880;29;20024;-73
2022/12/30 05:13:04;;;;;;;31.58;6.32;;;;;;;7.23;100.00;100612.94;4920680;29;20503;-73
2022/12/30 05:15:29;;;;;;;37.05;6.28;;;;;;;7.22;100.00;100605.84;4920194;29;20032;-73
2022/12/30 05:17:55;;;;;;;37.05;6.45;;;;;;;7.19;100.00;100611.53;4921239;29;20031;-74
2022/12/30 05:20:20;;;;;;;41.65;6.13;;;;;;;7.20;100.00;100613.22;4913121;29;20028;-73
2022/12/30 05:22:46;;;;;;;38.55;6.10;;;;;;;7.16;100.00;100627.94;4914133;29;20028;-73
2022/12/30 05:27:55;;;;;;;41.33;6.00;;;;;;;7.17;100.00;100616.22;4925602;29;20043;-74
2022/12/30 05:30:21;;;;;;;43.22;6.32;;;;;;;7.11;100.00;100610.53;4921139;29;20031;-74
2022/12/30 05:32:46;;;;;;;26.00;5.28;;;;;;;7.21;100.00;100620.31;4904650;29;20038;-74
2022/12/30 05:35:11;;;;;;;33.65;5.72;;;;;;;7.13;100.00;100633.63;4901229;29;20071;-74
2022/12/30 05:37:37;;;;;;;35.63;6.68;;;;;;;7.06;100.00;100627.97;4911042;29;20035;-74
2022/12/30 05:40:04;;;;;;;42.90;5.85;;;;;;;7.13;100.00;100628.25;4922292;29;20036;-74
2022/12/30 05:42:29;;;;;;;44.53;5.60;;;;;;;7.11;100.00;100632.94;4921475;29;20102;-73
2022/12/30 05:44:55;;;;;;;38.00;6.38;;;;;;;7.07;100.00;100623.44;4926264;29;20570;-74
2022/12/30 05:47:21;;;;;;;38.25;6.03;;;;;;;7.22;100.00;100630.06;4903211;29;20032;-74
2022/12/30 05:49:46;;;;;;;38.92;6.13;;;;;;;7.15;100.00;100636.19;4911321;29;20514;-74
2022/12/30 05:52:11;;;;;;;41.20;6.78;;;;;;;6.96;100.00;100632.50;4924593;29;20059;-75
2022/12/30 05:54:37;;;;;;;40.50;5.80;;;;;;;6.97;100.00;100633.34;4909710;29;20039;-75
2022/12/30 05:57:02;;;;;;;36.03;6.10;;;;;;;7.01;100.00;100641.00;4900856;29;20116;-75
2022/12/30 05:59:28;;;;;;;31.48;5.30;;;;;;;7.09;100.00;100637.59;4900447;29;20056;-73
2022/12/30 06:01:53;;;;;;;23.75;5.72;;;;;;;7.12;100.00;100648.09;4917912;29;20043;-73
2022/12/30 06:04:18;;;;;;;31.15;7.47;;;;;;;6.95;100.00;100651.47;4907601;29;20048;-74
2022/12/30 06:06:44;;;;;;;42.80;5.60;;;;;;;7.02;100.00;100647.22;4915827;29;20114;-74
2022/12/30 06:09:10;;;;;;;38.80;6.88;;;;;;;7.01;100.00;100650.91;4917392;29;20064;-73
2022/12/30 06:11:35;;;;;;;34.42;5.68;;;;;;;7.09;100.00;100648.38;4908655;29;20111;-73
2022/12/30 06:14:00;;;;;;;34.38;5.78;;;;;;;6.73;100.00;100648.06;4912753;29;20394;-73
2022/12/30 06:16:26;;;;;;;34.42;6.78;;;;;;;6.69;100.00;100652.00;4912772;29;20329;-73
2022/12/30 06:18:51;;;;;;;42.38;7.40;;;;;;;6.62;100.00;100658.94;4919292;29;20032;-73
2022/12/30 06:21:17;;;;;;;27.42;5.95;;;;;;;6.69;100.00;100652.00;4919929;29;20066;-74
2022/12/30 06:23:42;;;;;;;39.13;6.95;;;;;;;6.59;100.00;100661.91;4937825;29;20046;-73
2022/12/30 06:26:08;;;;;;;34.05;5.95;;;;;;;6.66;100.00;100668.44;4926941;29;20019;-73
2022/12/30 06:28:33;;;;;;;35.63;6.30;;;;;;;6.60;100.00;100679.75;4931471;29;20036;-73
2022/12/30 06:30:58;;;;;;;36.35;6.78;;;;;;;6.62;100.00;100671.53;4934053;29;20087;-73
2022/12/30 06:33:24;;;;;;;41.35;7.35;;;;;;;6.43;100.00;100672.31;4920796;29;20032;-73
2022/12/30 06:35:49;;;;;;;31.92;8.02;;;;;;;6.49;100.00;100677.16;4919743;29;20051;-73
2022/12/30 06:38:15;;;;;;;38.05;7.05;;;;;;;6.45;100.00;100675.72;4920584;29;20041;-73
2022/12/30 06:40:40;;;;;;;37.85;8.02;;;;;;;6.38;100.00;100669.19;4919580;29;20099;-73
2022/12/30 06:43:06;;;;;;;35.33;7.15;;;;;;;6.39;100.00;100670.88;4935523;29;20039;-73
2022/12/30 06:45:31;;;;;;;38.13;8.20;;;;;;;6.34;100.00;100694.66;4919085;29;20051;-73
2022/12/30 06:47:57;;;;;;;29.55;6.90;;;;;;;6.34;100.00;100683.91;4918188;29;20036;-73
2022/12/30 06:50:22;;;;;;;34.78;7.00;;;;;;;6.16;100.00;100675.63;4919802;29;20044;-73
2022/12/30 06:52:48;;;;;;;45.08;7.88;;;;;;;6.13;100.00;100682.13;4926844;29;20054;-74
2022/12/30 06:55:13;;;;;;;47.78;8.27;;;;;;;6.21;100.00;100676.06;4949112;29;20055;-74
2022/12/30 06:57:38;;;;;;;39.92;7.53;;;;;;;6.20;100.00;100683.28;4952398;28;20043;-74
2022/12/30 07:00:07;;;;;;;49.80;8.13;;;;;;;6.22;100.00;100680.47;4919863;29;20024;-74
2022/12/30 07:02:33;;;;;;;48.13;7.78;;;;;;;5.94;100.00;100682.03;4919710;29;20032;-74
2022/12/30 07:04:59;;;;;;;35.72;8.85;;;;;;;5.84;100.00;100679.22;4919016;29;20031;-74
2022/12/30 07:07:25;;;;;;;44.03;8.45;;;;;;;5.92;100.00;100673.22;4918950;29;20480;-73
2022/12/30 07:09:50;;;;;;;25.80;6.65;;;;;;;5.96;100.00;100682.72;4933757;29;20095;-74
2022/12/30 07:12:16;;;;;;;27.60;7.45;;;;;;;6.02;100.00;100695.63;4918876;29;20031;-74
2022/12/30 07:14:41;;;;;;;31.50;7.70;;;;;;;6.04;100.00;100687.44;4917655;29;20047;-74
2022/12/30 07:17:07;;;;;;;32.95;7.53;;;;;;;5.93;100.00;100693.72;4913105;29;20043;-73
2022/12/30 07:19:32;;;;;;;30.77;6.90;;;;;;;5.73;100.00;100712.38;4908637;29;20077;-73
2022/12/30 07:21:58;;;;;;;53.22;8.90;;;;;;;5.83;100.00;100707.09;4906013;29;20550;-76
2022/12/30 07:24:23;;;;;;;33.08;6.75;;;;;;;5.85;100.00;100717.69;4935518;29;20078;-75
2022/12/30 07:26:48;;;;;;;25.50;6.68;;;;;;;5.84;100.00;100713.31;4917540;29;20068;-73
2022/12/30 07:29:14;;;;;;;39.55;7.72;;;;;;;5.71;100.00;100713.50;4916378;29;20024;-73
2022/12/30 07:31:40;;;;;;;57.65;8.02;;;;;;;5.78;100.00;100709.31;4908768;29;20436;-73
2022/12/30 07:34:06;;;;;;;28.95;6.35;;;;;;;5.79;100.00;100715.53;4915530;29;20024;-75
2022/12/30 07:36:32;;;;;;;38.00;6.80;;;;;;;5.89;100.00;100716.47;4913964;29;20085;-73
2022/12/30 07:38:57;;;;;;;36.28;6.70;;;;;;;5.81;100.00;100724.34;4909841;29;20032;-73
2022/12/30 07:41:24;;;;;;;46.42;7.63;;;;;;;5.87;100.00;100723.81;4907729;29;20490;-73
2022/12/30 07:43:49;;;;;;;37.80;7.15;;;;;;;5.63;100.00;100729.44;4907897;29;20046;-72
2022/12/30 07:46:14;;;;;;;50.50;7.68;;;;;;;5.57;100.00;100716.53;4900739;29;20028;-73
2022/12/30 07:48:40;;;;;;;46.42;8.82;;;;;;;5.55;100.00;100719.34;4900362;29;20135;-72
2022/12/30 07:51:10;;;;;;;41.88;8.25;;;;;;;5.64;100.00;100712.31;4907760;29;20032;-75
2022/12/30 07:53:36;;;;;;;31.42;7.55;;;;;;;5.70;100.00;100715.34;4931593;29;20043;-75
2022/12/30 07:56:04;;;;;;;30.10;7.68;;;;;;;5.63;100.00;100722.22;4908805;29;20082;-75
2022/12/30 07:58:29;;;;;;;40.05;7.43;;;;;;;5.68;100.00;100725.38;4899886;29;20045;-74
2022/12/30 08:00:55;;;;;;;48.55;8.40;;;;;;;5.41;100.00;100722.31;4899463;29;20040;-74
2022/12/30 08:03:20;;;;;;;41.05;8.75;;;;;;;5.50;100.00;100732.31;4898101;29;20043;-72
2022/12/30 08:05:45;;;;;;;40.88;8.73;;;;;;;5.57;100.00;100728.13;4900886;29;20036;-74
2022/12/30 08:08:11;;;;;;;38.33;7.80;;;;;;;5.52;100.00;100727.63;4900615;29;20028;-73
2022/12/30 08:10:36;;;;;;;34.50;7.55;;;;;;;5.65;100.00;100731.00;4916131;29;20028;-74
2022/12/30 08:13:03;;;;;;;46.58;8.20;;;;;;;5.50;100.00;100734.97;4926469;29;20046;-73
2022/12/30 08:15:28;;;;;;;38.83;7.85;;;;;;;5.54;100.00;100728.38;4933170;29;20027;-74
2022/12/30 08:17:54;;;;;;;36.33;9.90;;;;;;;5.57;100.00;100730.78;4917551;29;20063;-71
2022/12/30 08:20:19;;;;;;;36.97;8.05;;;;;;;5.64;100.00;100734.66;4921798;29;20039;-73
2022/12/30 08:22:44;;;;;;;48.10;8.35;;;;;;;5.51;100.00;100739.38;4921768;29;20031;-74
2022/12/30 08:25:10;;;;;;;43.15;7.13;;;;;;;5.59;100.00;100726.13;4914756;29;20024;-71
2022/12/30 08:27:35;;;;;;;44.92;8.18;;;;;;;5.45;100.00;100729.16;4921655;29;20507;-71
2022/12/30 08:30:00;;;;;;;40.80;6.82;;;;;;;5.59;100.00;100728.81;4906668;29;20038;-73
2022/12/30 08:32:26;;;;;;;37.75;7.82;;;;;;;5.53;100.00;100726.66;4911874;29;20128;-73
2022/12/30 08:34:52;;;;;;;37.15;8.15;;;;;;;5.49;100.00;100730.59;4924161;29;20039;-74
2022/12/30 08:37:17;;;;;;;35.45;7.20;;;;;;;5.45;100.00;100730.00;4913164;29;20047;-74
2022/12/30 08:39:43;;;;;;;42.47;7.72;;;;;;;5.53;100.00;100732.03;4905645;29;20487;-71
2022/12/30 08:42:08;;;;;;;50.88;7.85;;;;;;;5.42;100.00;100724.03;4906168;29;20035;-74
2022/12/30 08:44:33;;;;;;;43.30;9.02;;;;;;;5.45;100.00;100723.78;4915195;29;20028;-74
2022/12/30 08:46:59;;;;;;;44.42;7.38;;;;;;;5.54;100.00;100717.66;4921930;29;20483;-71
2022/12/30 08:49:24;;;;;;;39.83;7.07;;;;;;;5.50;100.00;100720.72;4920340;29;20031;-72
2022/12/30 08:51:50;;;;;;;31.95;7.75;;;;;;;5.55;100.00;100723.88;4907509;29;20444;-71
2022/12/30 08:54:16;;;;;;;36.47;7.90;;;;;;;5.53;100.00;100715.91;4908932;29;20106;-72
2022/12/30 08:56:42;;;;;;;38.58;7.57;;;;;;;5.53;100.00;100731.19;4909043;29;20020;-71
2022/12/30 08:59:09;;;;;;;41.67;6.68;;;;;;;5.69;100.00;100727.06;4909343;29;20114;-72
2022/12/30 09:01:40;;;;;;;44.85;6.80;;;;;;;5.71;100.00;100730.47;4908980;29;20030;-71
2022/12/30 09:04:06;;;;;;;34.67;5.83;;;;;;;5.94;100.00;100736.63;4926680;29;20502;-72
2022/12/30 09:06:34;;;;;;;29.30;6.88;;;;;;;5.78;100.00;100743.38;4928397;29;20097;-72
2022/12/30 09:09:00;;;;;;;26.98;6.30;;;;;;;5.71;100.00;100741.22;4915554;29;20027;-73
2022/12/30 09:11:31;;;;;;;34.63;6.82;;;;;;;5.75;100.00;100740.97;4905498;29;20032;-73
2022/12/30 09:13:58;;;;;;;28.10;6.88;;;;;;;5.87;100.00;100750.69;4899103;29;20032;-72
2022/12/30 09:16:23;;;;;;;36.08;6.38;;;;;;;5.95;100.00;100742.84;4932979;29;20395;-72
2022/12/30 09:18:50;;;;;;;37.35;7.50;;;;;;;6.14;100.00;100748.34;4918300;29;20028;-71
2022/12/30 09:21:16;;;;;;;28.67;5.60;;;;;;;6.11;100.00;100743.22;4907801;29;20478;-72
2022/12/30 09:23:41;;;;;;;41.83;7.35;;;;;;;6.12;100.00;100750.28;4889034;29;20031;-72
2022/12/30 09:26:08;;;;;;;33.35;5.78;;;;;;;6.08;100.00;100748.88;4903882;29;20103;-73
2022/12/30 09:28:33;;;;;;;30.45;6.00;;;;;;;6.19;100.00;100740.72;4908711;29;20487;-72
2022/12/30 09:30:59;;;;;;;38.35;6.10;;;;;;;6.31;100.00;100737.94;4894137;29;20079;-73
2022/12/30 09:33:25;;;;;;;28.98;6.20;;;;;;;6.20;100.00;100742.44;4893661;29;20032;-73
2022/12/30 09:35:50;;;;;;;42.17;7.95;;;;;;;6.17;100.00;100742.69;4910574;29;20527;-72
2022/12/30 09:38:16;;;;;;;41.15;7.05;;;;;;;6.20;100.00;100737.06;4901709;29;20028;-73
2022/12/30 09:40:49;;;;;;;27.55;5.90;;;;;;;6.32;100.00;100739.63;4902673;29;20038;-73
2022/12/30 09:43:24;;;;;;;43.25;6.72;;;;;;;6.47;100.00;100732.94;4924467;29;20119;-72
2022/12/30 09:46:24;;;;;;;32.88;6.13;;;;;;;6.48;100.00;100729.25;4906605;29;20039;-71
2022/12/30 09:48:57;;;;;;;27.70;6.30;;;;;;;6.51;100.00;100724.44;4909004;29;20032;-71
2022/12/30 09:51:28;;;;;;;28.67;5.78;;;;;;;6.66;100.00;100714.16;4918598;29;20027;-73
2022/12/30 09:54:06;;;;;;;41.70;6.93;;;;;;;6.56;100.00;100726.72;4919236;29;20039;-72
2022/12/30 09:56:36;;;;;;;46.38;7.55;;;;;;;6.51;100.00;100718.19;4893116;29;20024;-72
2022/12/30 09:59:21;;;;;;;26.85;5.28;;;;;;;6.65;100.00;100704.41;4894735;29;20024;-72
2022/12/30 10:01:57;;;;;;;32.58;5.70;;;;;;;6.71;100.00;100703.81;4912210;29;20095;-72
2022/12/30 10:04:26;;;;;;;32.45;4.70;;;;;;;6.93;100.00;100693.84;4922576;29;20027;-74
2022/12/30 10:07:06;;;;;;;44.22;5.97;;;;;;;6.84;100.00;100698.19;4907924;29;20051;-77
2022/12/30 10:09:43;;;;;;;29.65;4.70;;;;;;;6.85;100.00;100694.53;4919991;29;20039;-76
2022/12/30 10:12:42;;;;;;;33.88;6.10;;;;;;;6.83;100.00;100684.88;4918684;29;20123;-75
2022/12/30 10:15:27;;;;;;;23.60;5.05;;;;;;;6.87;100.00;100686.31;4906965;29;20027;-74
2022/12/30 10:18:02;;;;;;;30.67;4.82;;;;;;;6.95;100.00;100678.38;4894302;29;20032;-77
2022/12/30 10:20:47;;;;;;;37.03;4.90;;;;;;;6.97;100.00;100660.25;4902324;29;20032;-75
2022/12/30 10:23:43;;;;;;;35.85;5.28;;;;;;;7.05;100.00;100668.50;4905002;29;20035;-76
2022/12/30 10:26:24;;;;;;;36.67;6.25;;;;;;;7.10;100.00;100660.81;4903865;29;20040;-75
2022/12/30 10:29:10;;;;;;;33.25;4.80;;;;;;;6.93;100.00;100653.47;4895361;29;20024;-76
2022/12/30 10:31:37;;;;;;;23.00;4.60;;;;;;;7.08;100.00;100642.13;4893989;29;20044;-75
2022/12/30 10:34:26;;;;;;;30.40;5.28;;;;;;;7.03;100.00;100654.31;4899711;29;20028;-73
2022/12/30 10:37:03;;;;;;;28.92;4.97;;;;;;;6.98;100.00;100652.06;4894084;29;20040;-78
2022/12/30 10:39:35;;;;;;;43.22;4.63;;;;;;;7.16;100.00;100646.81;4905715;29;20115;-76
2022/12/30 10:42:29;;;;;;;26.67;4.22;;;;;;;7.36;100.00;100644.94;4900707;29;20120;-78
2022/12/30 10:45:47;;;;;;;22.17;5.40;;;;;;;7.38;100.00;100634.06;4907159;29;20032;-76
2022/12/30 10:48:40;;;;;;;26.60;4.65;;;;;;;7.25;100.00;100643.28;4876912;29;20063;-76
2022/12/30 10:51:07;;;;;;;24.67;4.07;;;;;;;7.47;100.00;100630.50;4913807;29;20021;-74
2022/12/30 10:53:33;;;;;;;20.92;3.78;;;;;;;7.50;100.00;100624.81;4899949;29;20184;-73
2022/12/30 10:56:00;;;;;;;27.67;4.72;;;;;;;7.40;100.00;100619.44;4894828;29;20103;-74
2022/12/30 10:58:36;;;;;;;33.45;4.35;;;;;;;7.49;100.00;100623.09;4900646;29;20036;-74
2022/12/30 11:01:01;;;;;;;27.77;3.67;;;;;;;7.51;100.00;100615.75;4900331;29;20163;-75
2022/12/30 11:03:30;;;;;;;20.55;3.97;;;;;;;7.41;100.00;100606.81;4900627;29;20056;-73
2022/12/30 11:06:31;;;;;;;19.85;4.55;;;;;;;7.31;100.00;100604.16;4915453;29;20040;-77
2022/12/30 11:09:11;;;;;;;23.15;3.90;;;;;;;7.49;100.00;100585.38;4900534;29;20043;-74
2022/12/30 11:14:58;;;;;;;23.15;3.95;;;;;;;7.53;100.00;100581.41;4916757;29;20032;-76
2022/12/30 11:17:56;;;;;;;26.83;4.47;;;;;;;7.56;100.00;100575.72;4932151;29;20031;-77
2022/12/30 11:20:36;;;;;;;17.90;3.88;;;;;;;7.55;100.00;100574.88;4928669;29;20035;-74
2022/12/30 11:23:22;;;;;;;22.15;3.28;;;;;;;7.51;100.00;100572.66;4919121;29;20023;-75
2022/12/30 11:25:47;;;;;;;22.30;3.92;;;;;;;7.57;99.62;100566.69;4919564;29;20038;-73
2022/12/30 11:28:19;;;;;;;25.65;4.50;;;;;;;7.52;100.00;100569.78;4919500;29;20027;-76
2022/12/30 11:31:06;;;;;;;;;;;;;;;7.57;99.28;100566.69;4936753;29;20035;-75
2022/12/30 11:33:46;;;;;;;28.85;4.28;;;;;;;7.52;99.65;100563.56;4912112;29;19946;-74
2022/12/30 11:36:12;;;;;;;35.00;4.15;;;;;;;7.41;99.99;100544.88;4926613;29;20091;-73
2022/12/30 11:38:40;;;;;;;23.05;4.05;;;;;;;7.49;99.13;100539.59;4931114;29;20028;-75
2022/12/30 11:41:27;;;;;;;21.02;3.35;;;;;;;7.44;98.10;100539.22;4933493;29;20023;-73
2022/12/30 11:43:58;;;;;;;21.35;3.65;;;;;;;7.44;99.17;100523.06;4935464;29;20119;-73
2022/12/30 11:46:43;;;;;;;25.75;4.28;;;;;;;7.32;99.31;100525.91;4926485;29;20075;-74
2022/12/30 11:49:26;;;;;;;12.98;2.78;;;;;;;7.48;98.79;100517.19;4918742;29;20027;-73
2022/12/30 11:51:54;;;;;;;15.88;2.92;;;;;;;7.39;98.87;100503.78;4923915;29;20034;-73
2022/12/30 11:54:24;;;;;;;24.85;4.00;;;;;;;7.27;99.23;100495.88;4926166;29;20051;-73
2022/12/30 11:56:52;;;;;;;20.90;3.85;;;;;;;7.30;98.91;100495.59;4935261;29;20023;-73
2022/12/30 11:59:23;;;;;;;20.23;3.70;;;;;;;7.32;99.05;100482.81;4918175;29;20042;-74
2022/12/30 12:01:56;;;;;;;22.15;3.38;;;;;;;7.42;98.71;100490.00;4934812;29;20031;-73
2022/12/30 12:04:40;;;;;;;23.40;3.70;;;;;;;7.34;98.63;100480.81;4917746;29;20038;-74
2022/12/30 12:07:20;;;;;;;20.45;3.55;;;;;;;7.46;98.14;100467.19;4915917;29;20070;-74
2022/12/30 12:09:56;;;;;;;16.40;3.20;;;;;;;7.44;98.22;100474.56;4935656;29;20110;-74
2022/12/30 12:12:25;;;;;;;22.15;4.65;;;;;;;7.40;98.50;100457.84;4935478;29;20047;-73
2022/12/30 12:15:20;;;;;;;33.75;4.18;;;;;;;7.32;98.52;100450.50;4918520;29;20055;-73
2022/12/30 12:17:58;;;;;;;19.38;4.35;;;;;;;7.41;97.81;100442.53;4913382;29;20237;-76
2022/12/30 12:20:39;;;;;;;21.40;4.53;;;;;;;7.39;98.19;100441.84;4916079;29;20055;-73
2022/12/30 12:23:25;;;;;;;20.80;3.97;;;;;;;7.48;97.72;100432.84;4907258;29;20034;-74
2022/12/30 12:26:03;;;;;;;15.93;3.40;;;;;;;7.46;97.06;100432.16;4902825;29;20036;-74